createdAt,value
2023-06-04T00:00:00.567Z,14.48
2023-06-04T00:03:03.362Z,14.65
2023-06-04T00:06:06.044Z,14.81
2023-06-04T00:09:08.689Z,14.88
2023-06-04T00:12:11.364Z,14.87
2023-06-04T00:15:16.450Z,15.03
2023-06-04T00:18:19.075Z,15.07
2023-06-04T00:21:22.757Z,15.11
2023-06-04T00:24:25.400Z,15.13
2023-06-04T00:27:28.022Z,15.07
2023-06-04T00:30:30.733Z,15.02
2023-06-04T00:33:33.857Z,15.20
2023-06-04T00:36:36.521Z,15.07
2023-06-04T00:39:39.120Z,14.99
2023-06-04T00:42:41.768Z,14.88
2023-06-04T00:45:44.631Z,14.68
2023-06-04T00:48:47.350Z,14.56
2023-06-04T00:51:50.273Z,14.39
2023-06-04T00:54:53.465Z,14.28
2023-06-04T00:57:56.183Z,14.29
2023-06-04T01:01:00.985Z,14.32
2023-06-04T01:04:06.162Z,14.32
2023-06-04T01:07:10.249Z,14.29
2023-06-04T01:10:13.187Z,14.30
2023-06-04T01:13:15.977Z,14.38
2023-06-04T01:16:18.667Z,14.41
2023-06-04T01:19:52.501Z,14.44
2023-06-04T01:23:03.607Z,14.43
2023-06-04T01:26:06.610Z,14.37
2023-06-04T01:29:09.344Z,14.47
2023-06-04T01:32:12.156Z,14.46
2023-06-04T01:35:14.872Z,14.53
2023-06-04T01:38:17.672Z,14.46
2023-06-04T01:41:20.561Z,14.39
2023-06-04T01:44:23.591Z,14.29
2023-06-04T01:47:26.597Z,14.29
2023-06-04T01:50:29.265Z,14.28
2023-06-04T01:53:32.359Z,14.28
2023-06-04T01:56:34.999Z,14.21
2023-06-04T01:59:40.355Z,14.13
2023-06-04T02:02:46.944Z,14.36
2023-06-04T02:05:51.151Z,14.37
2023-06-04T02:08:55.351Z,14.48
2023-06-04T02:11:58.283Z,14.47
2023-06-04T02:15:01.257Z,14.41
2023-06-04T02:18:19.018Z,14.37
2023-06-04T02:21:21.927Z,14.37
2023-06-04T02:24:24.577Z,14.30
2023-06-04T02:27:27.139Z,14.34
2023-06-04T02:30:29.869Z,14.37
2023-06-04T02:33:32.581Z,14.22
2023-06-04T02:36:35.630Z,14.22
2023-06-04T02:39:38.213Z,14.12
2023-06-04T02:42:41.370Z,14.21
2023-06-04T02:45:44.073Z,14.26
2023-06-04T02:48:47.084Z,14.09
2023-06-04T02:51:49.617Z,14.14
2023-06-04T02:54:52.964Z,14.07
2023-06-04T02:57:55.545Z,14.05
2023-06-04T03:00:58.260Z,13.99
2023-06-04T03:04:04.940Z,14.10
2023-06-04T03:07:09.281Z,14.07
2023-06-04T03:10:13.208Z,14.13
2023-06-04T03:13:16.419Z,14.10
2023-06-04T03:16:19.176Z,14.16
2023-06-04T03:19:21.902Z,14.23
2023-06-04T03:22:24.852Z,14.14
2023-06-04T03:25:27.605Z,14.26
2023-06-04T03:28:31.884Z,14.30
2023-06-04T03:31:36.158Z,14.33
2023-06-04T03:34:38.941Z,14.31
2023-06-04T03:37:41.564Z,14.27
2023-06-04T03:40:45.228Z,14.26
2023-06-04T03:43:48.064Z,14.29
2023-06-04T03:46:50.916Z,14.32
2023-06-04T03:49:54.840Z,14.36
2023-06-04T03:52:57.880Z,14.32
2023-06-04T03:56:01.224Z,14.25
2023-06-04T03:59:05.348Z,14.33
2023-06-04T04:02:08.709Z,14.37
2023-06-04T04:05:13.275Z,14.34
2023-06-04T04:08:17.906Z,14.37
2023-06-04T04:11:21.823Z,14.36
2023-06-04T04:14:24.639Z,14.37
2023-06-04T04:17:27.617Z,14.40
2023-06-04T04:20:30.854Z,14.37
2023-06-04T04:23:43.358Z,14.47
2023-06-04T04:26:47.633Z,14.43
2023-06-04T04:29:50.504Z,14.38
2023-06-04T04:32:53.214Z,14.22
2023-06-04T04:36:15.247Z,14.39
2023-06-04T04:39:26.930Z,14.43
2023-06-04T04:42:32.579Z,14.40
2023-06-04T04:45:36.860Z,14.47
2023-06-04T04:48:43.560Z,14.48
2023-06-04T04:51:46.334Z,14.40
2023-06-04T04:54:49.219Z,14.38
2023-06-04T04:57:52.272Z,14.42
2023-06-04T05:00:56.179Z,14.35
2023-06-04T05:03:59.520Z,14.28
2023-06-04T05:07:03.477Z,14.28
2023-06-04T05:10:06.655Z,14.17
2023-06-04T05:13:12.353Z,14.15
2023-06-04T05:16:23.926Z,14.04
2023-06-04T05:19:26.972Z,14.08
2023-06-04T05:22:30.223Z,14.13
2023-06-04T05:25:33.143Z,14.05
2023-06-04T05:28:39.875Z,14.05
2023-06-04T05:31:43.074Z,14.07
2023-06-04T05:34:48.426Z,14.05
2023-06-04T05:37:55.247Z,14.11
2023-06-04T05:41:02.197Z,14.19
2023-06-04T05:44:09.158Z,14.26
2023-06-04T05:47:11.912Z,14.36
2023-06-04T05:50:14.865Z,14.49
2023-06-04T05:53:17.548Z,14.66
2023-06-04T05:56:22.941Z,14.84
2023-06-04T05:59:26.305Z,14.91
2023-06-04T06:02:29.188Z,15.20
2023-06-04T06:05:32.051Z,15.30
2023-06-04T06:08:35.110Z,15.34
2023-06-04T06:11:38.099Z,15.52
2023-06-04T06:14:41.193Z,15.45
2023-06-04T06:17:43.942Z,15.55
2023-06-04T06:20:47.215Z,15.58
2023-06-04T06:23:49.972Z,15.62
2023-06-04T06:26:53.013Z,15.95
2023-06-04T06:29:55.764Z,16.01
2023-06-04T06:32:58.767Z,15.96
2023-06-04T06:36:01.411Z,16.18
2023-06-04T06:39:04.580Z,16.13
2023-06-04T06:42:07.320Z,15.95
2023-06-04T06:45:14.487Z,16.22
2023-06-04T06:48:17.189Z,16.38
2023-06-04T06:51:19.944Z,16.46
2023-06-04T06:54:23.006Z,16.57
2023-06-04T06:57:25.741Z,16.98
2023-06-04T07:00:29.322Z,16.92
2023-06-04T07:03:32.564Z,17.18
2023-06-04T07:06:37.011Z,17.24
2023-06-04T07:09:39.640Z,17.44
2023-06-04T07:12:43.754Z,17.28
2023-06-04T07:15:46.605Z,17.44
2023-06-04T07:18:52.401Z,17.64
2023-06-04T07:21:56.904Z,17.94
2023-06-04T07:24:59.704Z,18.19
2023-06-04T07:28:05.070Z,18.18
2023-06-04T07:31:08.068Z,17.97
2023-06-04T07:34:10.900Z,17.90
2023-06-04T07:37:15.091Z,17.88
2023-06-04T07:40:18.559Z,17.93
2023-06-04T07:43:21.303Z,18.22
2023-06-04T07:46:23.927Z,18.46
2023-06-04T07:49:26.595Z,18.80
2023-06-04T07:52:29.352Z,19.08
2023-06-04T07:55:33.105Z,19.48
2023-06-04T07:58:35.810Z,19.59
2023-06-04T08:01:38.426Z,19.57
2023-06-04T08:04:41.361Z,19.75
2023-06-04T08:07:44.528Z,19.96
2023-06-04T08:10:47.271Z,20.14
2023-06-04T08:13:50.326Z,20.12
2023-06-04T08:16:53.077Z,20.37
2023-06-04T08:19:57.093Z,20.66
2023-06-04T08:22:59.742Z,20.53
2023-06-04T08:26:02.952Z,20.73
2023-06-04T08:29:05.764Z,20.57
2023-06-04T08:32:09.129Z,21.16
2023-06-04T08:35:11.990Z,20.82
2023-06-04T08:38:14.684Z,20.71
2023-06-04T08:41:30.769Z,20.71
2023-06-04T08:44:33.698Z,20.99
2023-06-04T08:47:36.982Z,21.15
2023-06-04T08:50:41.685Z,20.63
2023-06-04T08:53:45.118Z,20.75
2023-06-04T08:56:50.233Z,21.00
2023-06-04T08:59:52.926Z,20.83
2023-06-04T09:02:56.169Z,20.57
2023-06-04T09:05:59.643Z,20.95
2023-06-04T09:09:08.582Z,20.98
2023-06-04T09:12:13.142Z,20.85
2023-06-04T09:15:16.076Z,21.11
2023-06-04T09:18:18.653Z,20.64
2023-06-04T09:21:22.026Z,21.29
2023-06-04T09:24:26.734Z,21.36
2023-06-04T09:27:38.316Z,21.24
2023-06-04T09:30:51.579Z,21.29
2023-06-04T09:33:54.217Z,21.53
2023-06-04T09:36:57.761Z,21.87
2023-06-04T09:40:00.925Z,21.83
2023-06-04T09:43:03.861Z,21.56
2023-06-04T09:46:14.182Z,21.31
2023-06-04T09:49:17.673Z,21.69
2023-06-04T09:52:22.411Z,21.77
2023-06-04T09:55:25.170Z,21.51
2023-06-04T09:58:28.562Z,21.33
2023-06-04T10:01:31.641Z,21.02
2023-06-04T10:04:36.158Z,21.18
2023-06-04T10:07:39.778Z,20.87
2023-06-04T10:10:42.531Z,20.86
2023-06-04T10:13:49.507Z,20.90
2023-06-04T10:16:55.433Z,20.76
2023-06-04T10:19:59.461Z,20.79
2023-06-04T10:23:02.485Z,20.99
2023-06-04T10:26:05.196Z,21.05
2023-06-04T10:29:07.975Z,21.71
2023-06-04T10:32:10.721Z,21.93
2023-06-04T10:35:15.627Z,21.68
2023-06-04T10:38:20.123Z,21.86
2023-06-04T10:41:24.518Z,21.83
2023-06-04T10:44:27.196Z,22.46
2023-06-04T10:47:35.199Z,22.99
2023-06-04T10:50:51.181Z,23.66
2023-06-04T10:53:53.783Z,24.33
2023-06-04T10:56:57.889Z,24.07
2023-06-04T11:00:01.748Z,23.78
2023-06-04T11:03:09.822Z,23.79
2023-06-04T11:06:19.169Z,24.05
2023-06-04T11:09:21.867Z,24.10
2023-06-04T11:12:24.599Z,24.22
2023-06-04T11:15:27.307Z,24.23
2023-06-04T11:18:30.095Z,24.75
2023-06-04T11:21:37.600Z,24.87
2023-06-04T11:24:40.261Z,25.04
2023-06-04T11:27:42.919Z,24.57
2023-06-04T11:30:56.830Z,24.94
2023-06-04T11:34:02.139Z,25.21
2023-06-04T11:37:11.294Z,25.03
2023-06-04T11:40:21.574Z,24.69
2023-06-04T11:43:24.684Z,24.38
2023-06-04T11:46:27.393Z,24.32
2023-06-04T11:49:30.058Z,24.47
2023-06-04T11:52:34.409Z,24.72
2023-06-04T11:55:39.122Z,24.65
2023-06-04T11:58:42.913Z,24.76
2023-06-04T12:01:47.123Z,24.66
2023-06-04T12:04:49.763Z,25.04
2023-06-04T12:07:52.962Z,25.52
2023-06-04T12:10:55.744Z,25.55
2023-06-04T12:14:07.857Z,25.31
2023-06-04T12:17:10.659Z,25.93
2023-06-04T12:20:13.260Z,25.93
2023-06-04T12:23:22.696Z,26.77
2023-06-04T12:26:29.974Z,26.79
2023-06-04T12:29:32.853Z,26.81
2023-06-04T12:32:38.691Z,26.81
2023-06-04T12:35:41.356Z,27.25
2023-06-04T12:38:44.855Z,27.40
2023-06-04T12:41:48.732Z,27.01
2023-06-04T12:44:51.345Z,26.32
2023-06-04T12:47:54.081Z,26.38
2023-06-04T12:50:56.756Z,26.61
2023-06-04T12:53:59.628Z,27.11
2023-06-04T12:57:04.711Z,26.55
2023-06-04T13:00:08.600Z,26.46
2023-06-04T13:03:11.365Z,26.31
2023-06-04T13:06:14.043Z,27.50
2023-06-04T13:09:17.454Z,27.97
2023-06-04T13:12:20.135Z,28.14
2023-06-04T13:15:23.394Z,28.85
2023-06-04T13:18:26.119Z,29.99
2023-06-04T13:21:28.830Z,31.42
2023-06-04T13:24:31.674Z,31.61
2023-06-04T13:27:34.447Z,31.07
2023-06-04T13:30:41.423Z,31.14
2023-06-04T13:33:44.024Z,30.25
2023-06-04T13:36:46.669Z,28.79
2023-06-04T13:39:49.201Z,28.85
2023-06-04T13:42:51.843Z,29.09
2023-06-04T13:45:54.474Z,28.45
2023-06-04T13:48:57.958Z,28.57
2023-06-04T13:52:00.658Z,31.48
2023-06-04T13:55:03.415Z,30.09
2023-06-04T13:58:06.493Z,28.97
2023-06-04T14:01:09.387Z,27.56
2023-06-04T14:04:12.763Z,26.62
2023-06-04T14:07:15.418Z,26.72
2023-06-04T14:10:18.139Z,28.26
2023-06-04T14:13:20.962Z,31.90
2023-06-04T14:16:23.794Z,32.89
2023-06-04T14:19:26.448Z,31.27
2023-06-04T14:22:29.058Z,30.43
2023-06-04T14:25:33.849Z,27.98
2023-06-04T14:28:36.618Z,27.43
2023-06-04T14:31:39.286Z,26.63
2023-06-04T14:34:42.007Z,26.36
2023-06-04T14:37:44.714Z,25.81
2023-06-04T14:40:47.399Z,25.64
2023-06-04T14:43:50.064Z,25.63
2023-06-04T14:46:52.993Z,26.06
2023-06-04T14:49:55.662Z,28.54
2023-06-04T14:52:58.365Z,32.13
2023-06-04T14:56:01.165Z,34.61
2023-06-04T14:59:06.644Z,34.14
2023-06-04T15:02:09.406Z,33.51
2023-06-04T15:05:12.101Z,33.01
2023-06-04T15:08:14.820Z,30.98
2023-06-04T15:11:17.556Z,30.59
2023-06-04T15:14:20.209Z,32.26
2023-06-04T15:17:23.056Z,33.16
2023-06-04T15:20:28.577Z,34.22
2023-06-04T15:23:31.403Z,33.78
2023-06-04T15:26:34.109Z,30.37
2023-06-04T15:29:36.867Z,28.34
2023-06-04T15:32:39.577Z,27.35
2023-06-04T15:35:42.238Z,27.33
2023-06-04T15:38:44.919Z,26.81
2023-06-04T15:41:47.547Z,26.58
2023-06-04T15:44:50.241Z,26.23
2023-06-04T15:47:53.160Z,26.16
2023-06-04T15:50:55.911Z,25.72
2023-06-04T15:53:59.357Z,25.39
2023-06-04T15:57:02.603Z,25.36
2023-06-04T16:00:05.757Z,25.47
2023-06-04T16:03:08.300Z,25.14
2023-06-04T16:06:11.857Z,24.99
2023-06-04T16:09:14.504Z,24.76
2023-06-04T16:12:17.236Z,24.32
2023-06-04T16:15:19.999Z,24.32
2023-06-04T16:18:23.098Z,24.25
2023-06-04T16:21:27.136Z,24.06
2023-06-04T16:24:29.804Z,24.00
2023-06-04T16:27:33.131Z,23.78
2023-06-04T16:30:36.192Z,23.48
2023-06-04T16:33:38.805Z,23.34
2023-06-04T16:36:43.048Z,23.13
2023-06-04T16:39:45.734Z,22.97
2023-06-04T16:42:48.461Z,22.81
2023-06-04T16:45:51.306Z,22.62
2023-06-04T16:48:53.943Z,22.47
2023-06-04T16:51:56.644Z,22.39
2023-06-04T16:55:00.392Z,22.24
2023-06-04T16:58:03.120Z,22.09
2023-06-04T17:01:06.559Z,21.89
2023-06-04T17:04:09.154Z,21.80
2023-06-04T17:07:11.971Z,21.73
2023-06-04T17:10:14.628Z,21.59
2023-06-04T17:13:17.398Z,21.46
2023-06-04T17:16:20.134Z,21.39
2023-06-04T17:19:22.973Z,21.28
2023-06-04T17:22:26.014Z,21.24
2023-06-04T17:25:29.881Z,21.09
2023-06-04T17:28:32.605Z,20.90
2023-06-04T17:31:35.290Z,20.87
2023-06-04T17:34:38.255Z,20.65
2023-06-04T17:37:41.002Z,20.42
2023-06-04T17:40:43.673Z,20.27
2023-06-04T17:43:46.538Z,20.04
2023-06-04T17:46:49.188Z,19.95
2023-06-04T17:49:51.838Z,19.84
2023-06-04T17:52:54.518Z,19.70
2023-06-04T17:56:00.134Z,19.55
2023-06-04T17:59:06.956Z,19.40
2023-06-04T18:02:09.725Z,19.24
2023-06-04T18:05:12.528Z,19.10
2023-06-04T18:08:15.456Z,18.97
2023-06-04T18:11:18.719Z,18.88
2023-06-04T18:14:21.587Z,18.75
2023-06-04T18:17:24.160Z,18.63
2023-06-04T18:20:26.898Z,18.47
2023-06-04T18:23:29.600Z,18.39
2023-06-04T18:26:32.224Z,18.33
2023-06-04T18:29:34.841Z,18.21
2023-06-04T18:32:37.767Z,18.26
2023-06-04T18:35:40.528Z,18.14
2023-06-04T18:38:43.179Z,18.16
2023-06-04T18:41:47.452Z,18.05
2023-06-04T18:44:50.078Z,18.02
2023-06-04T18:47:52.739Z,17.97
2023-06-04T18:50:55.402Z,17.87
2023-06-04T18:53:58.131Z,17.84
2023-06-04T18:57:01.094Z,17.83
2023-06-04T19:00:08.703Z,17.76
2023-06-04T19:03:11.555Z,17.72
2023-06-04T19:06:14.308Z,17.71
2023-06-04T19:09:17.048Z,17.62
2023-06-04T19:12:19.729Z,17.58
2023-06-04T19:15:22.606Z,17.49
2023-06-04T19:18:25.355Z,17.48
2023-06-04T19:21:28.214Z,17.33
2023-06-04T19:24:30.898Z,17.27
2023-06-04T19:27:33.630Z,17.24
2023-06-04T19:30:36.400Z,17.12
2023-06-04T19:33:39.182Z,17.15
2023-06-04T19:36:42.035Z,17.18
2023-06-04T19:39:44.666Z,17.12
2023-06-04T19:42:47.328Z,17.14
2023-06-04T19:45:57.851Z,17.07
2023-06-04T19:49:00.695Z,17.16
2023-06-04T19:52:03.669Z,17.19
2023-06-04T19:55:09.133Z,17.18
2023-06-04T19:58:12.102Z,17.17
2023-06-04T20:01:14.872Z,17.17
2023-06-04T20:04:17.678Z,17.12
2023-06-04T20:07:21.054Z,17.10
2023-06-04T20:10:25.536Z,17.03
2023-06-04T20:13:28.251Z,16.99
2023-06-04T20:16:31.125Z,16.96
2023-06-04T20:19:33.753Z,16.87
2023-06-04T20:22:36.502Z,16.84
2023-06-04T20:25:39.218Z,16.77
2023-06-04T20:28:41.886Z,16.78
2023-06-04T20:31:44.561Z,16.75
2023-06-04T20:34:47.169Z,16.73
2023-06-04T20:37:50.182Z,16.70
2023-06-04T20:40:52.769Z,16.66
2023-06-04T20:43:56.311Z,16.59
2023-06-04T20:46:59.006Z,16.76
2023-06-04T20:50:01.743Z,16.66
2023-06-04T20:53:04.486Z,16.56
2023-06-04T20:56:07.358Z,16.54
2023-06-04T20:59:10.236Z,16.42
2023-06-04T21:02:15.830Z,16.36
2023-06-04T21:05:18.617Z,16.44
2023-06-04T21:08:21.656Z,16.34
2023-06-04T21:11:24.423Z,16.27
2023-06-04T21:14:27.014Z,16.29
2023-06-04T21:17:32.017Z,16.37
2023-06-04T21:20:35.705Z,16.38
2023-06-04T21:23:38.526Z,16.34
2023-06-04T21:26:41.568Z,16.25
2023-06-04T21:29:44.245Z,16.30
2023-06-04T21:32:47.000Z,16.48
2023-06-04T21:35:49.656Z,16.53
2023-06-04T21:38:52.333Z,16.47
2023-06-04T21:41:54.996Z,16.46
2023-06-04T21:44:57.671Z,16.48
2023-06-04T21:48:03.674Z,16.43
2023-06-04T21:51:07.623Z,16.47
2023-06-04T21:54:11.108Z,16.36
2023-06-04T21:57:13.810Z,16.34
2023-06-04T22:00:17.110Z,16.31
2023-06-04T22:03:19.824Z,16.25
2023-06-04T22:06:22.930Z,16.40
2023-06-04T22:09:25.631Z,16.26
2023-06-04T22:12:28.686Z,16.32
2023-06-04T22:15:31.487Z,16.29
2023-06-04T22:18:48.120Z,16.16
2023-06-04T22:21:55.259Z,16.24
2023-06-04T22:24:57.820Z,16.16
2023-06-04T22:28:00.560Z,16.12
2023-06-04T22:31:03.222Z,16.03
2023-06-04T22:34:06.288Z,15.94
2023-06-04T22:37:08.965Z,15.86
2023-06-04T22:40:14.424Z,15.84
2023-06-04T22:43:17.136Z,15.84
2023-06-04T22:46:19.835Z,15.86
2023-06-04T22:49:22.638Z,15.82
2023-06-04T22:52:27.043Z,15.82
2023-06-04T22:55:29.803Z,15.85
2023-06-04T22:58:32.491Z,15.94
2023-06-04T23:01:35.233Z,15.86
2023-06-04T23:04:37.959Z,15.87
2023-06-04T23:07:42.183Z,15.74
2023-06-04T23:10:45.446Z,15.72
2023-06-04T23:13:48.012Z,15.67
2023-06-04T23:16:50.858Z,15.70
2023-06-04T23:19:53.658Z,15.70
2023-06-04T23:22:56.440Z,15.59
2023-06-04T23:25:59.203Z,15.64
2023-06-04T23:29:02.848Z,15.75
2023-06-04T23:32:05.894Z,15.77
2023-06-04T23:35:09.059Z,15.69
2023-06-04T23:38:12.096Z,15.62
2023-06-04T23:41:14.803Z,15.64
2023-06-04T23:44:18.371Z,15.72
2023-06-04T23:47:21.181Z,15.69
2023-06-04T23:50:23.838Z,15.64
2023-06-04T23:53:27.082Z,15.64
2023-06-04T23:56:29.799Z,15.63
2023-06-04T23:59:32.526Z,15.64
